Time;durP1;ratioP1;P1;durP2;ratioP2;P2;SDS_P1;SDS_P2;PMS_P1;PMS_P2;Temp;Humidity;BMP_temperature;BMP_pressure;BME280_temperature;BME280_humidity;BME280_pressure;Samples;Min_cycle;Max_cycle;Signal;HPM_P1;HPM_P2
2023/02/14 00:00:47;;;;;;;0.30;0.30;;;;;;;-0.47;81.39;98334.59;4966981;28;20104;-58
2023/02/14 00:03:13;;;;;;;0.30;0.30;;;;;;;-0.44;81.58;98333.22;4967017;28;20047;-57
2023/02/14 00:05:40;;;;;;;0.30;0.30;;;;;;;-0.76;83.62;98329.88;4966755;28;20501;-58
2023/02/14 00:08:07;;;;;;;0.30;0.30;;;;;;;-0.83;83.53;98326.59;4966927;28;20113;-56
2023/02/14 00:10:33;;;;;;;0.30;0.30;;;;;;;-0.77;83.90;98317.34;4966476;28;20109;-57
2023/02/14 00:13:00;;;;;;;0.30;0.30;;;;;;;-1.36;84.72;98223.63;4966097;28;20138;-58
2023/02/14 00:15:27;;;;;;;0.30;0.30;;;;;;;-0.83;85.27;98315.69;4966259;28;20059;-57
2023/02/14 00:17:58;;;;;;;0.30;0.30;;;;;;;-1.74;84.93;98198.44;4969800;28;20061;-56
2023/02/14 00:20:27;;;;;;;0.30;0.30;;;;;;;-0.92;84.86;98325.47;4984246;28;20058;-57
2023/02/14 00:22:53;;;;;;;0.30;0.30;;;;;;;-1.35;84.27;98249.69;4985856;28;20545;-57
2023/02/14 00:25:20;;;;;;;0.30;0.30;;;;;;;-0.91;84.84;98336.06;4985698;28;20058;-58
2023/02/14 00:27:46;;;;;;;0.30;0.30;;;;;;;-1.35;84.43;98249.69;4986339;28;20539;-57
2023/02/14 00:30:13;;;;;;;0.30;0.30;;;;;;;-0.89;84.73;98316.78;4985231;28;20054;-57
2023/02/14 00:32:41;;;;;;;0.20;0.20;;;;;;;-0.87;85.37;98317.34;4985888;28;20140;-57
2023/02/14 00:35:08;;;;;;;0.20;0.20;;;;;;;-0.88;85.42;98310.25;4985593;28;20513;-57
2023/02/14 00:37:35;;;;;;;0.30;0.30;;;;;;;-0.93;83.86;98302.09;4984720;28;20054;-57
2023/02/14 00:40:02;;;;;;;0.30;0.30;;;;;;;-0.96;83.95;98303.41;4985856;28;20054;-57
2023/02/14 00:42:29;;;;;;;0.20;0.20;;;;;;;-0.95;84.31;98315.13;4984354;28;20141;-56
2023/02/14 00:44:56;;;;;;;0.30;0.30;;;;;;;-0.92;83.92;98299.09;4985663;28;20081;-57
2023/02/14 00:47:22;;;;;;;0.20;0.20;;;;;;;-1.03;83.83;98296.59;4985794;28;20049;-57
2023/02/14 00:49:49;;;;;;;0.30;0.30;;;;;;;-1.08;85.07;98282.97;4985366;28;20152;-58
2023/02/14 00:52:15;;;;;;;0.20;0.20;;;;;;;-1.46;84.87;98216.22;4985616;28;20065;-57
2023/02/14 00:54:42;;;;;;;0.30;0.30;;;;;;;-0.95;84.94;98282.50;4985539;28;20087;-57
2023/02/14 00:57:09;;;;;;;0.20;0.20;;;;;;;-1.20;85.22;98230.75;4985126;28;20054;-57
2023/02/14 00:59:36;;;;;;;0.30;0.30;;;;;;;-1.35;83.60;98204.31;4985384;28;20070;-57
2023/02/14 01:02:02;;;;;;;0.30;0.30;;;;;;;-0.87;84.81;98263.75;4983902;28;20050;-57
2023/02/14 01:04:29;;;;;;;0.30;0.30;;;;;;;-0.86;84.58;98259.97;4984909;28;20502;-55
2023/02/14 01:06:56;;;;;;;0.30;0.30;;;;;;;-0.88;84.96;98261.28;4985564;28;20050;-55
2023/02/14 01:09:22;;;;;;;0.30;0.30;;;;;;;-0.73;85.41;98258.63;4984794;28;20046;-56
2023/02/14 01:11:49;;;;;;;0.30;0.30;;;;;;;-0.74;84.02;98262.41;4983476;28;20564;-56
2023/02/14 01:14:16;;;;;;;0.30;0.30;;;;;;;-0.66;83.65;98259.19;4985433;28;20042;-57
2023/02/14 01:16:42;;;;;;;0.30;0.30;;;;;;;-0.69;84.09;98259.72;4985050;28;20078;-57
2023/02/14 01:19:09;;;;;;;0.30;0.30;;;;;;;-0.70;84.06;98220.00;4985100;28;20153;-56
2023/02/14 01:21:36;;;;;;;0.30;0.30;;;;;;;-0.56;82.72;98245.59;4984982;28;20053;-57
2023/02/14 01:24:05;;;;;;;0.30;0.30;;;;;;;-0.53;83.07;98245.06;4985286;28;20493;-57
2023/02/14 01:26:33;;;;;;;0.25;0.25;;;;;;;-0.48;82.54;98262.22;4984214;28;20051;-59
2023/02/14 01:29:01;;;;;;;0.30;0.30;;;;;;;-0.79;81.88;98197.94;4983398;28;20050;-58
2023/02/14 01:31:31;;;;;;;0.30;0.30;;;;;;;-0.89;81.63;98199.84;4984657;28;20112;-56
2023/02/14 01:33:58;;;;;;;0.30;0.30;;;;;;;-0.54;81.33;98235.28;4984960;28;20116;-57
2023/02/14 01:36:27;;;;;;;0.30;0.30;;;;;;;-0.70;81.56;98233.59;4983127;28;20054;-57
2023/02/14 01:38:57;;;;;;;0.30;0.30;;;;;;;-0.95;81.83;98220.75;4984895;28;20108;-58
2023/02/14 01:41:26;;;;;;;0.28;0.28;;;;;;;-1.28;81.88;98190.50;4985274;28;20077;-57
2023/02/14 01:44:06;;;;;;;0.30;0.30;;;;;;;-0.92;82.79;98238.44;4984840;28;20054;-57
2023/02/14 01:46:36;;;;;;;0.20;0.20;;;;;;;-1.28;83.56;98212.25;4984954;28;20050;-57
2023/02/14 01:49:20;;;;;;;0.30;0.30;;;;;;;-1.08;83.89;98240.31;4983460;28;20476;-57
2023/02/14 01:51:51;;;;;;;0.30;0.30;;;;;;;-1.06;84.08;98243.56;4984881;28;20074;-58
2023/02/14 01:54:21;;;;;;;0.30;0.30;;;;;;;-1.00;84.66;98241.69;4984560;28;20055;-57
2023/02/14 01:56:53;;;;;;;0.30;0.30;;;;;;;-1.12;84.00;98216.66;4983017;28;20054;-56
2023/02/14 01:59:23;;;;;;;0.30;0.30;;;;;;;-1.67;83.90;98117.53;4983324;28;20582;-57
2023/02/14 02:01:52;;;;;;;0.20;0.20;;;;;;;-1.13;84.05;98220.44;4984793;28;20309;-57
2023/02/14 02:04:25;;;;;;;0.30;0.30;;;;;;;-1.10;84.33;98219.91;4983351;28;20192;-58
2023/02/14 02:06:58;;;;;;;0.30;0.30;;;;;;;-1.60;83.56;98194.16;4984854;28;20046;-57
2023/02/14 02:09:29;;;;;;;0.30;0.30;;;;;;;-1.22;83.73;98222.88;4982853;28;20066;-57
2023/02/14 02:11:56;;;;;;;0.20;0.20;;;;;;;-1.52;84.06;98182.00;4984645;28;20104;-57
2023/02/14 02:14:23;;;;;;;0.30;0.30;;;;;;;-1.37;84.18;98192.06;4984644;28;20042;-57
2023/02/14 02:17:09;;;;;;;0.30;0.30;;;;;;;-1.30;84.32;98225.25;4983895;28;20058;-57
2023/02/14 02:19:53;;;;;;;0.30;0.30;;;;;;;-1.28;84.37;98217.69;4984190;28;20116;-57
2023/02/14 02:22:37;;;;;;;0.30;0.30;;;;;;;-1.33;84.23;98214.94;4813552;28;5001135;-57
2023/02/14 02:25:04;;;;;;;0.20;0.20;;;;;;;-1.25;83.76;98217.13;4991830;28;20144;-56
2023/02/14 02:27:45;;;;;;;0.30;0.30;;;;;;;-1.19;83.60;98216.06;4984014;28;20046;-57
2023/02/14 02:30:42;;;;;;;0.20;0.20;;;;;;;-1.33;84.90;98199.44;4984373;28;20055;-57
2023/02/14 02:33:58;;;;;;;0.25;0.25;;;;;;;-1.38;85.26;98190.44;4984399;28;20054;-57
2023/02/14 02:36:30;;;;;;;0.30;0.30;;;;;;;-1.58;87.24;98186.56;4985005;28;20576;-58
2023/02/14 02:39:34;;;;;;;0.30;0.30;;;;;;;-1.46;87.41;98182.81;4988189;28;20065;-57
2023/02/14 02:42:35;;;;;;;0.30;0.30;;;;;;;-1.49;88.58;98178.72;4987924;28;20141;-57
2023/02/14 02:45:27;;;;;;;0.20;0.20;;;;;;;-1.44;88.04;98186.91;4945695;28;20065;-57
2023/02/14 02:47:59;;;;;;;0.30;0.30;;;;;;;-1.37;88.18;98184.75;4987882;28;20485;-57
2023/02/14 02:53:33;;;;;;;0.20;0.20;;;;;;;-1.29;88.08;98177.97;4987640;28;20140;-57
2023/02/14 02:59:17;;;;;;;0.28;0.28;;;;;;;-1.25;87.25;98179.09;4987823;28;20480;-58
2023/02/14 03:01:53;;;;;;;0.30;0.30;;;;;;;-1.34;86.83;98159.75;4987695;28;20077;-56
2023/02/14 03:09:56;;;;;;;0.20;0.20;;;;;;;-1.35;84.74;98179.03;4987495;28;20105;-57
2023/02/14 03:12:32;;;;;;;0.30;0.30;;;;;;;-1.40;85.42;98181.75;4987172;28;20054;-57
2023/02/14 03:15:07;;;;;;;0.20;0.20;;;;;;;-1.75;84.70;98122.66;4987126;28;20583;-57
2023/02/14 03:20:35;;;;;;;0.20;0.20;;;;;;;-1.47;85.19;98181.19;4967830;28;20415;-57
2023/02/14 03:23:13;;;;;;;0.20;0.20;;;;;;;-1.43;85.30;98187.72;4967722;28;20156;-57
2023/02/14 03:25:52;;;;;;;0.30;0.30;;;;;;;-2.25;86.11;98044.56;4967742;28;20145;-57
2023/02/14 03:28:29;;;;;;;0.30;0.30;;;;;;;-1.69;85.63;98146.84;4982276;28;20117;-57
2023/02/14 03:31:18;;;;;;;0.22;0.22;;;;;;;-1.44;86.42;98191.50;4967690;28;20501;-57
2023/02/14 03:34:00;;;;;;;0.20;0.20;;;;;;;-1.69;86.29;98114.28;4966835;28;20086;-57
2023/02/14 03:36:34;;;;;;;0.20;0.20;;;;;;;-1.52;86.74;98156.72;4982203;28;20121;-57
2023/02/14 03:39:14;;;;;;;0.20;0.20;;;;;;;-1.64;86.24;98165.91;4967469;28;20579;-57
2023/02/14 03:41:56;;;;;;;0.25;0.25;;;;;;;-1.61;86.86;98181.66;4982190;28;20137;-57
2023/02/14 03:44:27;;;;;;;0.30;0.30;;;;;;;-1.79;86.46;98124.28;4967580;28;20559;-57
2023/02/14 03:47:03;;;;;;;0.20;0.20;;;;;;;-1.80;87.61;98145.19;4965953;28;20047;-57
2023/02/14 03:49:34;;;;;;;0.30;0.30;;;;;;;-1.93;87.77;98132.09;4966645;28;20456;-57
2023/02/14 03:52:03;;;;;;;0.22;0.22;;;;;;;-1.89;88.94;98146.78;4967670;28;20126;-56
2023/02/14 03:54:31;;;;;;;0.20;0.20;;;;;;;-2.17;90.04;98127.34;4967127;28;20062;-58
2023/02/14 03:57:07;;;;;;;0.20;0.20;;;;;;;-1.91;90.06;98143.50;4965525;28;20062;-56
2023/02/14 03:59:34;;;;;;;0.30;0.30;;;;;;;-1.81;89.51;98135.41;4966545;28;20114;-57
2023/02/14 04:02:07;;;;;;;0.20;0.20;;;;;;;-1.76;88.27;98135.44;4967365;28;20063;-57
2023/02/14 04:04:42;;;;;;;;;;;;;;;-1.84;88.12;98133.22;4967572;28;20074;-57
2023/02/14 04:07:15;;;;;;;0.20;0.20;;;;;;;-2.05;90.17;98131.47;4966968;28;20378;-58
2023/02/14 04:09:42;;;;;;;0.20;0.20;;;;;;;-1.96;89.66;98135.31;4965181;28;20058;-57
2023/02/14 04:12:09;;;;;;;0.20;0.20;;;;;;;-2.43;89.47;98053.13;4966825;28;20113;-55
2023/02/14 04:14:36;;;;;;;0.20;0.20;;;;;;;-1.91;89.42;98132.63;4966897;28;20157;-56
2023/02/14 04:19:49;;;;;;;0.28;0.28;;;;;;;-1.77;89.09;98127.56;4982422;28;20140;-56
2023/02/14 04:22:16;;;;;;;0.20;0.20;;;;;;;-1.79;89.66;98118.84;4986225;28;20137;-56
2023/02/14 04:24:42;;;;;;;0.20;0.20;;;;;;;-1.72;89.61;98122.13;4984215;28;20109;-56
2023/02/14 04:27:09;;;;;;;0.20;0.20;;;;;;;-1.67;89.17;98122.97;4984465;28;20256;-56
2023/02/14 04:29:40;;;;;;;0.20;0.20;;;;;;;-1.65;88.17;98115.38;4984415;28;20584;-56
2023/02/14 04:32:10;;;;;;;0.20;0.20;;;;;;;-1.53;87.03;98122.50;4985709;28;20494;-57
2023/02/14 04:34:38;;;;;;;0.20;0.20;;;;;;;-1.85;87.19;98104.44;4986163;28;20154;-59
2023/02/14 04:37:05;;;;;;;0.20;0.20;;;;;;;-1.71;87.56;98214.19;4985857;28;20125;-57
2023/02/14 04:39:33;;;;;;;0.30;0.30;;;;;;;-1.70;85.77;98090.09;4985670;28;20124;-57
2023/02/14 04:41:59;;;;;;;0.20;0.20;;;;;;;-1.66;85.87;98108.31;4986145;28;20058;-57
2023/02/14 04:44:26;;;;;;;0.30;0.30;;;;;;;-1.77;86.09;98084.13;4985424;28;20938;-56
2023/02/14 04:46:53;;;;;;;0.20;0.20;;;;;;;-1.69;86.01;98100.69;4985224;28;20140;-58
2023/02/14 04:49:20;;;;;;;0.30;0.30;;;;;;;-2.32;86.22;98002.44;4985505;28;20068;-57
2023/02/14 04:51:47;;;;;;;0.20;0.20;;;;;;;-1.70;86.44;98096.34;4985307;28;20525;-57
2023/02/14 04:54:13;;;;;;;0.30;0.30;;;;;;;-1.64;85.87;98095.28;4985002;28;20521;-57
2023/02/14 04:56:40;;;;;;;0.20;0.20;;;;;;;-1.59;85.28;98098.03;4985106;28;20453;-57
2023/02/14 04:59:07;;;;;;;0.20;0.20;;;;;;;-1.71;85.61;98111.00;4984469;28;20105;-57
2023/02/14 05:01:34;;;;;;;0.30;0.30;;;;;;;-1.75;85.82;98120.78;4985352;28;20058;-58
2023/02/14 05:04:00;;;;;;;0.20;0.20;;;;;;;-1.92;85.99;98101.16;4985226;28;20058;-57
2023/02/14 05:06:27;;;;;;;0.20;0.20;;;;;;;-2.24;85.46;98056.19;4983568;28;20520;-57
2023/02/14 05:08:55;;;;;;;0.22;0.22;;;;;;;-1.81;85.99;98121.84;4984958;28;20113;-58
2023/02/14 05:11:22;;;;;;;0.20;0.20;;;;;;;-1.88;85.39;98121.25;4985185;28;20054;-55
2023/02/14 05:13:48;;;;;;;0.20;0.20;;;;;;;-2.36;85.91;98032.03;4984856;28;20141;-57
2023/02/14 05:16:15;;;;;;;0.20;0.20;;;;;;;-1.84;85.85;98111.50;4985000;28;20050;-59
2023/02/14 05:18:42;;;;;;;0.20;0.20;;;;;;;-2.33;85.89;98031.50;4984922;28;20109;-57
2023/02/14 05:21:09;;;;;;;0.20;0.20;;;;;;;-2.13;85.26;98075.00;4984994;28;20054;-58
2023/02/14 05:23:36;;;;;;;0.28;0.28;;;;;;;-1.71;85.42;98121.84;4983598;28;20101;-57
2023/02/14 05:26:03;;;;;;;0.20;0.20;;;;;;;-1.87;85.46;98106.63;4984792;28;20096;-58
2023/02/14 05:28:30;;;;;;;0.20;0.20;;;;;;;-2.10;85.13;98052.75;4985024;28;20133;-57
2023/02/14 05:30:57;;;;;;;0.22;0.22;;;;;;;-1.71;84.66;98110.19;4984789;28;20057;-58
2023/02/14 05:33:25;;;;;;;0.20;0.20;;;;;;;-2.56;84.40;97999.34;4983514;28;20058;-57
2023/02/14 05:35:52;;;;;;;0.20;0.20;;;;;;;-1.88;84.78;98072.38;4984483;28;20093;-57
2023/02/14 05:38:18;;;;;;;0.30;0.30;;;;;;;-1.86;85.04;98097.38;4984928;28;20135;-57
2023/02/14 05:40:45;;;;;;;0.30;0.30;;;;;;;-1.75;84.83;98071.06;4984586;28;20564;-57
2023/02/14 05:43:12;;;;;;;0.22;0.22;;;;;;;-1.62;85.03;98093.13;4984906;28;20089;-58
2023/02/14 05:45:38;;;;;;;0.30;0.30;;;;;;;-1.92;85.32;98052.28;4984536;28;20084;-57
2023/02/14 05:48:05;;;;;;;0.20;0.20;;;;;;;-1.83;85.01;98064.25;4985026;28;20652;-57
2023/02/14 05:50:31;;;;;;;0.20;0.20;;;;;;;-1.76;83.94;98037.69;4984541;28;20085;-56
2023/02/14 05:52:59;;;;;;;0.20;0.20;;;;;;;-1.29;84.53;98112.75;4984955;28;20055;-57
2023/02/14 05:55:26;;;;;;;0.30;0.30;;;;;;;-1.21;83.87;98110.34;4984348;28;20079;-57
2023/02/14 05:57:53;;;;;;;0.20;0.20;;;;;;;-1.37;82.71;98067.09;4984394;28;20580;-56
2023/02/14 06:00:20;;;;;;;0.20;0.20;;;;;;;-0.98;82.48;98109.03;4984393;28;20051;-57
2023/02/14 06:02:47;;;;;;;0.30;0.30;;;;;;;-0.90;83.39;98105.75;4983316;28;20124;-56
2023/02/14 06:05:16;;;;;;;0.30;0.30;;;;;;;-1.17;82.67;98035.31;4983979;28;20268;-57
2023/02/14 06:07:49;;;;;;;0.30;0.30;;;;;;;-0.76;82.56;98079.66;4984375;28;20046;-57
2023/02/14 06:10:25;;;;;;;0.30;0.30;;;;;;;-0.61;81.84;98082.34;4984104;28;20063;-57
2023/02/14 06:12:52;;;;;;;0.20;0.20;;;;;;;-0.80;81.89;98033.16;4987297;28;20132;-56
2023/02/14 06:15:19;;;;;;;0.30;0.30;;;;;;;-0.60;81.34;98024.16;4987980;28;20125;-58
2023/02/14 06:17:54;;;;;;;0.30;0.30;;;;;;;-0.62;79.77;98004.56;4986968;28;20046;-57
2023/02/14 06:20:22;;;;;;;0.30;0.30;;;;;;;-0.06;79.72;98074.91;4968421;28;20093;-57
2023/02/14 06:22:50;;;;;;;0.30;0.30;;;;;;;0.09;79.34;98092.28;4968376;28;20093;-58
2023/02/14 06:25:17;;;;;;;0.30;0.30;;;;;;;0.19;78.61;98086.81;4968499;28;20050;-57
2023/02/14 06:27:43;;;;;;;0.30;0.30;;;;;;;0.40;78.54;98094.59;4967348;28;20453;-58
2023/02/14 06:30:11;;;;;;;0.30;0.30;;;;;;;0.56;77.57;98081.72;4968231;28;20082;-56
2023/02/14 06:32:38;;;;;;;0.30;0.30;;;;;;;0.61;78.18;98084.41;4968059;28;20051;-57
2023/02/14 06:35:06;;;;;;;0.30;0.30;;;;;;;0.76;77.79;98104.22;4966464;28;20526;-57
2023/02/14 06:37:33;;;;;;;0.30;0.30;;;;;;;1.06;76.44;98089.59;4967121;28;20054;-57
2023/02/14 06:40:00;;;;;;;0.38;0.38;;;;;;;0.89;76.46;98059.97;4968041;28;20723;-56
2023/02/14 06:42:27;;;;;;;0.30;0.30;;;;;;;1.17;76.64;98081.03;4968255;28;20141;-58
2023/02/14 06:44:53;;;;;;;0.30;0.30;;;;;;;1.01;75.48;98024.94;4967959;28;20123;-57
2023/02/14 06:47:20;;;;;;;0.30;0.30;;;;;;;1.14;75.24;98028.94;4967945;28;20061;-58
2023/02/14 06:49:47;;;;;;;0.30;0.30;;;;;;;1.60;75.25;98075.78;4967889;28;20054;-58
2023/02/14 06:52:13;;;;;;;0.40;0.40;;;;;;;-0.66;75.38;97693.38;4979493;28;20054;-58
2023/02/14 06:54:40;;;;;;;0.38;0.38;;;;;;;1.78;74.60;98055.91;4986705;28;20089;-56
2023/02/14 06:57:06;;;;;;;0.32;0.32;;;;;;;1.83;75.08;98014.88;4990006;28;20046;-57
2023/02/14 06:59:33;;;;;;;0.40;0.40;;;;;;;2.22;73.84;98061.97;5005156;28;20120;-56
2023/02/14 07:02:00;;;;;;;0.35;0.35;;;;;;;2.38;73.54;98063.41;4988725;28;20054;-57
2023/02/14 07:04:27;;;;;;;0.40;0.40;;;;;;;2.46;73.21;98041.72;4986858;28;20089;-58
2023/02/14 07:06:53;;;;;;;0.40;0.40;;;;;;;1.75;72.40;97915.31;4995934;28;20485;-60
2023/02/14 07:09:20;;;;;;;0.30;0.30;;;;;;;2.81;72.42;98049.38;4990965;28;20148;-54
2023/02/14 07:11:47;;;;;;;0.40;0.40;;;;;;;3.16;71.30;98045.31;4993863;28;20054;-57
2023/02/14 07:14:13;;;;;;;0.40;0.40;;;;;;;3.23;71.39;98051.22;4993003;28;20101;-56
2023/02/14 07:16:40;;;;;;;0.30;0.30;;;;;;;3.49;71.08;98043.38;4984931;28;20065;-57
2023/02/14 07:19:07;;;;;;;0.40;0.40;;;;;;;3.58;71.00;98047.06;4986653;28;20073;-56
2023/02/14 07:21:33;;;;;;;0.40;0.40;;;;;;;3.47;71.93;98023.69;4983436;28;20062;-57
2023/02/14 07:24:00;;;;;;;0.40;0.40;;;;;;;3.09;72.02;97973.72;4976696;28;20098;-59
2023/02/14 07:26:26;;;;;;;0.40;0.40;;;;;;;3.66;71.60;98055.41;4986043;28;20058;-56
2023/02/14 07:28:53;;;;;;;0.40;0.40;;;;;;;3.59;71.72;98065.94;4985139;28;20046;-56
2023/02/14 07:31:22;;;;;;;0.50;0.50;;;;;;;3.66;71.30;98055.41;4986334;28;20435;-57
2023/02/14 07:33:50;;;;;;;0.40;0.40;;;;;;;3.58;72.23;98031.44;4992090;28;20042;-58
2023/02/14 07:36:17;;;;;;;0.40;0.40;;;;;;;3.85;71.89;98041.63;5001866;28;20453;-54
2023/02/14 07:38:44;;;;;;;0.40;0.40;;;;;;;3.79;71.43;98048.31;4985055;28;20097;-56
2023/02/14 07:41:10;;;;;;;0.43;0.43;;;;;;;3.69;71.04;98038.38;4985967;28;20370;-58
2023/02/14 07:43:38;;;;;;;0.40;0.40;;;;;;;3.66;71.06;98022.53;5002241;28;20132;-56
2023/02/14 07:46:05;;;;;;;0.45;0.45;;;;;;;3.93;70.35;98028.06;5001140;28;20053;-58
2023/02/14 07:48:32;;;;;;;0.50;0.50;;;;;;;4.18;70.38;98046.75;4982402;28;20042;-55
2023/02/14 07:51:00;;;;;;;0.43;0.43;;;;;;;4.42;69.50;98052.00;4985622;28;20109;-57
2023/02/14 07:53:27;;;;;;;0.40;0.40;;;;;;;4.64;68.97;98043.84;4985935;28;20458;-56
2023/02/14 07:55:54;;;;;;;0.40;0.40;;;;;;;3.77;68.75;97876.00;4983137;28;20063;-56
2023/02/14 07:58:21;;;;;;;0.40;0.40;;;;;;;5.16;66.03;98039.63;4985930;28;20060;-56
2023/02/14 08:00:48;;;;;;;0.50;0.50;;;;;;;4.30;65.21;97868.78;4981217;28;20066;-55
2023/02/14 08:03:14;;;;;;;0.50;0.50;;;;;;;5.71;65.12;98040.97;4982991;28;20050;-57
2023/02/14 08:05:41;;;;;;;0.50;0.50;;;;;;;5.94;62.80;98035.16;5005504;28;20108;-55
2023/02/14 08:08:08;;;;;;;0.50;0.50;;;;;;;6.22;60.76;98041.28;4993735;28;20081;-56
2023/02/14 08:10:35;;;;;;;0.50;0.50;;;;;;;6.32;61.26;98046.50;4985213;28;20050;-56
2023/02/14 08:13:02;;;;;;;0.50;0.50;;;;;;;6.48;60.44;98050.41;4997306;28;20513;-60
2023/02/14 08:18:18;;;;;;;0.60;0.60;;;;;;;6.80;60.28;98030.75;4985762;28;20061;-58
2023/02/14 08:20:47;;;;;;;0.60;0.60;;;;;;;7.06;59.84;98034.34;4976151;28;20149;-57
2023/02/14 08:23:15;;;;;;;0.60;0.60;;;;;;;7.25;59.47;98037.59;4984189;28;20050;-59
2023/02/14 08:25:42;;;;;;;0.60;0.60;;;;;;;7.49;59.51;98010.31;5003523;28;20183;-58
2023/02/14 08:28:09;;;;;;;0.63;0.63;;;;;;;7.55;57.77;97967.69;4996596;28;20061;-57
2023/02/14 08:30:37;;;;;;;0.60;0.60;;;;;;;7.86;56.86;98007.94;5003622;28;20139;-58
2023/02/14 08:33:04;;;;;;;0.60;0.60;;;;;;;7.96;56.60;98010.38;4985872;28;20084;-56
2023/02/14 08:35:31;;;;;;;0.70;0.70;;;;;;;7.98;56.08;97966.72;4984831;28;20113;-57
2023/02/14 08:37:58;;;;;;;0.77;0.77;;;;;;;8.22;55.82;98005.56;4984688;28;20198;-59
2023/02/14 08:40:25;;;;;;;0.70;0.70;;;;;;;8.37;53.21;98014.13;4997452;28;20092;-58
2023/02/14 08:42:52;;;;;;;0.70;0.70;;;;;;;5.82;53.12;97610.78;4993077;28;20568;-57
2023/02/14 08:45:19;;;;;;;0.65;0.65;;;;;;;8.11;52.56;98009.84;5003392;28;20054;-58
2023/02/14 08:47:45;;;;;;;0.70;0.70;;;;;;;7.51;53.30;97930.84;4986405;28;20058;-57
2023/02/14 08:50:15;;;;;;;0.60;0.60;;;;;;;7.37;53.62;97913.72;4985349;28;20789;-57
2023/02/14 08:52:42;;;;;;;0.60;0.60;;;;;;;7.09;50.33;97959.31;4987639;28;20492;-55
2023/02/14 08:55:10;;;;;;;0.60;0.60;;;;;;;7.31;51.54;98000.47;4985295;28;20077;-56
2023/02/14 08:57:38;;;;;;;0.60;0.60;;;;;;;7.26;51.85;97984.09;4982159;28;20066;-57
2023/02/14 09:00:05;;;;;;;0.60;0.60;;;;;;;7.08;51.64;97987.19;4995396;28;20064;-57
2023/02/14 09:02:33;;;;;;;0.65;0.65;;;;;;;7.25;51.09;97934.81;4987180;28;20077;-57
2023/02/14 09:04:59;;;;;;;0.60;0.60;;;;;;;7.33;49.29;97889.91;4984952;28;20072;-59
2023/02/14 09:07:26;;;;;;;0.60;0.60;;;;;;;7.92;48.47;97968.03;4983486;28;20449;-54
2023/02/14 09:09:53;;;;;;;0.60;0.60;;;;;;;7.35;47.29;97805.75;4986152;28;20109;-57
2023/02/14 09:12:19;;;;;;;0.70;0.70;;;;;;;8.74;47.73;97995.88;4987638;28;20058;-58
2023/02/14 09:14:46;;;;;;;0.77;0.77;;;;;;;9.02;46.90;97996.97;4984310;28;20097;-57
2023/02/14 09:17:14;;;;;;;0.80;0.80;;;;;;;8.36;45.85;97918.63;4980205;28;20058;-58
2023/02/14 09:19:41;;;;;;;0.80;0.80;;;;;;;8.64;46.20;97902.38;4984673;28;20564;-58
2023/02/14 09:22:09;;;;;;;0.80;0.80;;;;;;;9.25;45.37;97989.94;4982834;28;20502;-56
2023/02/14 09:24:38;;;;;;;0.70;0.70;;;;;;;9.37;44.90;97992.78;4997542;28;20061;-61
2023/02/14 09:27:04;;;;;;;0.80;0.80;;;;;;;9.63;44.25;97990.56;4991595;28;20085;-57
2023/02/14 09:29:32;;;;;;;0.75;0.75;;;;;;;9.15;43.96;97932.34;4989918;28;20184;-58
2023/02/14 09:32:00;;;;;;;0.80;0.80;;;;;;;9.16;44.04;97986.44;4994013;28;20132;-58
2023/02/14 09:34:28;;;;;;;0.80;0.80;;;;;;;8.99;43.39;97956.19;4992824;28;20489;-57
2023/02/14 09:36:54;;;;;;;0.80;0.80;;;;;;;9.51;42.60;97971.16;4989890;28;20140;-57
2023/02/14 09:39:21;;;;;;;0.80;0.80;;;;;;;9.67;42.58;97951.97;5003415;28;20509;-56
2023/02/14 09:42:00;;;;;;;0.80;0.80;;;;;;;9.37;42.69;97893.25;4983028;28;20061;-58
2023/02/14 09:44:40;;;;;;;0.90;0.90;;;;;;;10.41;42.64;97956.13;4983572;28;20264;-57
2023/02/14 09:47:28;;;;;;;1.00;1.00;;;;;;;10.59;41.72;97965.78;4991996;28;20046;-56
2023/02/14 09:49:57;;;;;;;0.80;0.80;;;;;;;10.23;41.33;97927.03;4990680;28;20116;-58
2023/02/14 09:52:27;;;;;;;0.80;0.80;;;;;;;9.88;41.25;97970.09;4986868;28;20462;-57
2023/02/14 09:54:57;;;;;;;0.80;0.80;;;;;;;9.81;42.28;97953.25;4986183;28;20505;-57
2023/02/14 09:57:44;;;;;;;0.80;0.80;;;;;;;10.00;42.09;97914.78;4986158;28;20080;-57
2023/02/14 10:00:28;;;;;;;0.90;0.90;;;;;;;10.49;43.26;97955.19;4986994;28;20930;-57
2023/02/14 10:03:03;;;;;;;0.85;0.85;;;;;;;10.17;42.84;97950.56;4987568;28;20153;-57
2023/02/14 10:06:19;;;;;;;0.80;0.80;;;;;;;10.25;42.87;97946.88;4969757;28;20101;-59
2023/02/14 10:08:58;;;;;;;0.82;0.82;;;;;;;10.72;42.45;97938.06;4971561;28;20085;-58
2023/02/14 10:11:26;;;;;;;0.88;0.88;;;;;;;10.06;41.40;97858.03;4990455;28;20058;-57
2023/02/14 10:14:07;;;;;;;0.90;0.90;;;;;;;9.96;42.58;97941.50;5000212;28;20058;-58
2023/02/14 10:17:20;;;;;;;0.80;0.80;;;;;;;9.18;42.08;97782.38;5000978;28;20058;-58
2023/02/14 10:19:55;;;;;;;0.88;0.88;;;;;;;10.18;40.65;97888.50;4937139;28;20055;-57
2023/02/14 10:22:38;;;;;;;0.80;0.80;;;;;;;10.27;40.85;97927.16;4949823;28;20091;-58
2023/02/14 10:25:19;;;;;;;0.90;0.90;;;;;;;10.45;40.91;97901.63;4973274;28;20054;-57
2023/02/14 10:27:47;;;;;;;0.90;0.90;;;;;;;10.78;40.22;97886.78;4992061;28;20090;-58
2023/02/14 10:30:15;;;;;;;0.80;0.80;;;;;;;10.98;41.44;97902.41;4977319;28;20082;-58
2023/02/14 10:32:45;;;;;;;0.80;0.80;;;;;;;10.96;41.56;97894.44;4986411;28;20082;-57
2023/02/14 10:35:29;;;;;;;0.90;0.90;;;;;;;10.93;41.95;97847.22;4986231;28;20061;-58
2023/02/14 10:38:30;;;;;;;0.90;0.90;;;;;;;11.33;41.17;97898.69;4986216;28;20090;-58
2023/02/14 10:41:06;;;;;;;0.90;0.90;;;;;;;11.32;40.56;97896.25;4986127;28;20148;-56
2023/02/14 10:44:03;;;;;;;0.90;0.90;;;;;;;11.18;40.93;97896.66;4987728;28;20164;-57
2023/02/14 10:46:45;;;;;;;0.90;0.90;;;;;;;11.47;40.43;97887.16;4965254;28;20093;-58
2023/02/14 10:49:21;;;;;;;1.00;1.00;;;;;;;11.50;39.46;97886.47;4987522;28;20138;-56
2023/02/14 10:51:50;;;;;;;1.00;1.00;;;;;;;11.37;40.17;97887.66;4986698;28;20054;-57
2023/02/14 10:54:24;;;;;;;1.00;1.00;;;;;;;11.65;40.30;97882.94;4985927;28;20468;-57
2023/02/14 10:56:54;;;;;;;0.90;0.90;;;;;;;11.67;39.45;97880.59;4984364;28;20065;-56
2023/02/14 10:59:52;;;;;;;1.00;1.00;;;;;;;11.59;40.01;97876.81;4988655;28;20046;-57
2023/02/14 11:02:23;;;;;;;0.90;0.90;;;;;;;11.12;40.44;97808.53;4981272;28;20124;-58
2023/02/14 11:04:51;;;;;;;0.90;0.90;;;;;;;11.31;40.00;97886.31;4986241;28;20513;-57
2023/02/14 11:07:20;;;;;;;0.90;0.90;;;;;;;10.44;41.46;97863.19;4987672;28;20089;-57
2023/02/14 11:09:47;;;;;;;0.80;0.80;;;;;;;10.23;43.34;97893.81;4986674;28;20527;-57
2023/02/14 11:12:32;;;;;;;0.90;0.90;;;;;;;9.98;43.45;97881.09;4986737;28;20049;-57
2023/02/14 11:15:20;;;;;;;0.80;0.80;;;;;;;10.39;43.32;97875.31;4986591;28;20112;-57
2023/02/14 11:17:47;;;;;;;0.90;0.90;;;;;;;9.89;42.86;97860.22;4986561;28;20120;-56
2023/02/14 11:20:29;;;;;;;0.77;0.77;;;;;;;10.36;42.75;97875.22;4986979;28;20058;-57
2023/02/14 11:22:56;;;;;;;0.80;0.80;;;;;;;9.81;43.09;97870.25;4986897;28;20058;-58
2023/02/14 11:25:26;;;;;;;0.80;0.80;;;;;;;10.37;42.58;97872.09;4986757;28;20073;-56
2023/02/14 11:28:00;;;;;;;0.70;0.70;;;;;;;9.88;42.43;97798.53;4984530;28;20552;-57
2023/02/14 11:30:38;;;;;;;0.80;0.80;;;;;;;10.49;42.34;97847.16;4982072;28;20051;-57
2023/02/14 11:33:28;;;;;;;0.82;0.82;;;;;;;9.83;43.79;97854.09;4985677;28;20061;-56
2023/02/14 11:35:56;;;;;;;0.70;0.70;;;;;;;10.21;43.10;97849.03;4985832;28;20488;-58
2023/02/14 11:38:29;;;;;;;0.80;0.80;;;;;;;9.51;42.68;97765.69;5000711;28;20488;-56
2023/02/14 11:40:57;;;;;;;0.85;0.85;;;;;;;9.78;43.75;97848.00;4996243;28;20059;-56
2023/02/14 11:43:37;;;;;;;0.77;0.77;;;;;;;9.49;43.94;97843.47;4978691;28;20617;-59
2023/02/14 11:46:19;;;;;;;0.70;0.70;;;;;;;9.81;44.23;97839.81;4990449;28;20054;-62
2023/02/14 11:49:03;;;;;;;0.80;0.80;;;;;;;10.27;43.53;97828.28;4986003;28;20050;-58
2023/02/14 11:51:35;;;;;;;0.90;0.90;;;;;;;10.45;42.71;97823.25;4981157;28;20113;-61
2023/02/14 11:54:04;;;;;;;0.80;0.80;;;;;;;10.62;41.77;97818.22;4986491;28;20509;-57
2023/02/14 11:56:48;;;;;;;0.82;0.82;;;;;;;10.40;42.20;97804.91;4992335;28;20120;-58
2023/02/14 11:59:47;;;;;;;0.80;0.80;;;;;;;10.84;41.42;97818.84;4976841;28;20120;-59
2023/02/14 12:02:21;;;;;;;0.90;0.90;;;;;;;10.41;41.62;97817.63;4987741;28;20448;-56
2023/02/14 12:04:53;;;;;;;0.90;0.90;;;;;;;10.44;41.46;97758.75;4984240;28;20058;-59
2023/02/14 12:07:35;;;;;;;0.90;0.90;;;;;;;10.97;41.00;97812.09;5002205;28;20433;-58
2023/02/14 12:10:14;;;;;;;1.00;1.00;;;;;;;11.18;40.90;97807.13;5003710;28;20089;-58
2023/02/14 12:12:59;;;;;;;0.80;0.80;;;;;;;11.44;40.52;97815.75;4989184;28;20046;-59
2023/02/14 12:15:37;;;;;;;0.90;0.90;;;;;;;11.08;41.14;97807.66;4978801;28;20485;-57